Time;durP1;ratioP1;P1;durP2;ratioP2;P2;SDS_P1;SDS_P2;PMS_P1;PMS_P2;Temp;Humidity;BMP_temperature;BMP_pressure;BME280_temperature;BME280_humidity;BME280_pressure;Samples;Min_cycle;Max_cycle;Signal;HPM_P1;HPM_P2
2023/02/13 00:00:55;;;;;;;4.85;3.90;;;;;;;2.96;59.16;102052.78;4382075;32;33139;-85
2023/02/13 00:03:24;;;;;;;0.85;0.85;;;;;;;3.01;58.91;102053.78;4383067;32;34020;-86
2023/02/13 00:05:51;;;;;;;0.65;0.65;;;;;;;3.10;58.40;102048.75;4380294;32;32640;-86
2023/02/13 00:08:19;;;;;;;6.93;2.33;;;;;;;3.01;58.51;102053.78;4382880;32;33737;-86
2023/02/13 00:10:51;;;;;;;2.00;1.55;;;;;;;2.97;58.58;102047.59;4394467;32;32260;-86
2023/02/13 00:13:19;;;;;;;4.47;2.53;;;;;;;2.77;59.02;102057.56;4393882;32;32161;-86
2023/02/13 00:15:57;;;;;;;4.57;1.77;;;;;;;2.87;58.77;102058.66;4376207;32;32300;-86
2023/02/13 00:18:26;;;;;;;1.42;1.42;;;;;;;2.78;59.08;102067.13;4380419;32;33562;-86
2023/02/13 00:21:02;;;;;;;3.90;2.20;;;;;;;2.93;58.90;102060.53;4382154;32;32759;-87
2023/02/13 00:23:32;;;;;;;0.77;0.77;;;;;;;2.81;58.99;102066.34;4371796;32;33930;-86
2023/02/13 00:26:00;;;;;;;1.48;1.30;;;;;;;2.69;58.82;102069.53;4371613;32;34280;-87
2023/02/13 00:28:27;;;;;;;0.70;0.70;;;;;;;2.73;58.87;102073.97;4377371;32;33389;-87
2023/02/13 00:31:08;;;;;;;0.95;0.95;;;;;;;2.82;58.67;102075.94;4383669;32;32953;-86
2023/02/13 00:33:37;;;;;;;1.27;1.12;;;;;;;2.92;58.35;102074.44;4357698;32;32414;-84
2023/02/13 00:36:10;;;;;;;0.70;0.70;;;;;;;2.83;58.02;102073.34;4397673;32;33940;-84
2023/02/13 00:38:39;;;;;;;0.93;0.93;;;;;;;2.43;59.64;102070.59;4380711;32;34407;-84
2023/02/13 00:41:08;;;;;;;2.35;0.85;;;;;;;2.72;58.78;102068.72;4397722;32;34093;-84
2023/02/13 00:43:36;;;;;;;2.15;1.50;;;;;;;2.68;58.87;102066.88;4368560;32;32738;-84
2023/02/13 00:46:04;;;;;;;1.12;1.12;;;;;;;2.49;59.63;102065.53;4376631;32;33588;-84
2023/02/13 00:48:33;;;;;;;1.30;1.27;;;;;;;2.68;59.28;102067.75;4382065;32;33240;-83
2023/02/13 00:51:01;;;;;;;2.17;1.48;;;;;;;2.54;59.14;102067.41;4375408;32;32701;-83
2023/02/13 00:53:29;;;;;;;2.05;1.95;;;;;;;2.45;59.15;102068.91;4377952;32;33133;-83
2023/02/13 00:55:57;;;;;;;1.10;0.80;;;;;;;2.43;59.33;102075.81;4376916;32;33955;-83
2023/02/13 00:58:25;;;;;;;0.98;0.98;;;;;;;2.40;59.27;102076.59;4383054;32;34734;-83
2023/02/13 01:00:54;;;;;;;0.25;0.25;;;;;;;2.45;59.37;102074.13;4381055;32;34323;-83
2023/02/13 01:03:24;;;;;;;0.77;0.77;;;;;;;2.53;59.30;102075.22;4370660;32;33113;-84
2023/02/13 01:05:52;;;;;;;0.35;0.35;;;;;;;2.47;59.13;102073.34;4381226;32;32449;-85
2023/02/13 01:08:20;;;;;;;0.75;0.75;;;;;;;2.56;58.89;102073.56;4370979;32;196423;-86
2023/02/13 01:10:48;;;;;;;0.68;0.68;;;;;;;2.53;58.70;102062.19;4393743;32;33464;-86
2023/02/13 01:13:19;;;;;;;0.22;0.22;;;;;;;2.54;58.58;102058.72;4370158;32;32730;-86
2023/02/13 01:15:48;;;;;;;3.45;3.20;;;;;;;2.63;58.29;102058.06;4376683;32;34014;-86
2023/02/13 01:18:17;;;;;;;1.45;1.35;;;;;;;2.63;58.12;102053.72;4382053;32;33920;-86
2023/02/13 01:21:04;;;;;;;0.90;0.88;;;;;;;2.58;58.22;102055.34;4371067;32;32379;-86
2023/02/13 01:23:34;;;;;;;2.37;1.15;;;;;;;2.64;57.71;102052.00;4396404;32;33722;-86
2023/02/13 01:26:06;;;;;;;0.43;0.43;;;;;;;2.65;57.71;102044.19;4383792;32;32395;-86
2023/02/13 01:28:34;;;;;;;1.08;1.08;;;;;;;2.54;57.82;102043.94;4369707;32;32336;-85
2023/02/13 01:31:04;;;;;;;0.88;0.82;;;;;;;2.63;57.56;102045.03;4394577;32;34213;-85
2023/02/13 01:33:31;;;;;;;0.68;0.68;;;;;;;2.59;57.55;102038.84;4393759;32;32647;-85
2023/02/13 01:36:05;;;;;;;3.45;2.20;;;;;;;2.49;57.91;102039.47;4376754;32;32599;-85
2023/02/13 01:38:33;;;;;;;1.85;1.75;;;;;;;2.44;58.33;102044.56;4396564;32;33698;-85
2023/02/13 01:41:01;;;;;;;0.28;0.28;;;;;;;2.54;58.14;102037.84;4395360;32;32831;-85
2023/02/13 01:43:58;;;;;;;0.30;0.30;;;;;;;2.47;57.72;102043.75;4385665;32;33122;-85
2023/02/13 01:46:41;;;;;;;0.65;0.65;;;;;;;2.53;57.74;102033.50;4394011;32;32931;-85
2023/02/13 01:49:17;;;;;;;2.00;1.90;;;;;;;2.50;57.73;102036.87;4393923;32;32532;-85
2023/02/13 01:51:46;;;;;;;1.48;1.23;;;;;;;2.91;56.85;102031.78;4383412;32;32510;-85
2023/02/13 01:54:16;;;;;;;2.62;1.17;;;;;;;2.48;57.42;102037.72;4395264;32;32856;-85
2023/02/13 01:56:49;;;;;;;2.00;1.35;;;;;;;2.10;59.11;102035.00;4396185;32;34291;-85
2023/02/13 01:59:26;;;;;;;1.98;1.87;;;;;;;2.05;59.00;102034.00;4381182;32;33781;-85
2023/02/13 02:01:54;;;;;;;0.25;0.25;;;;;;;2.04;58.73;102035.72;4388692;32;32282;-85
2023/02/13 02:04:34;;;;;;;0.85;0.85;;;;;;;2.05;58.57;102039.19;4370599;32;33008;-85
2023/02/13 02:07:09;;;;;;;0.65;0.65;;;;;;;2.19;58.27;102040.44;4393926;32;34086;-85
2023/02/13 02:09:39;;;;;;;0.77;0.77;;;;;;;2.10;58.33;102039.31;4392399;32;33379;-87
2023/02/13 02:12:19;;;;;;;0.47;0.47;;;;;;;2.14;58.19;102035.97;4381718;32;33223;-87
2023/02/13 02:14:48;;;;;;;2.55;1.85;;;;;;;2.12;58.03;102029.81;4383763;32;33389;-86
2023/02/13 02:17:17;;;;;;;3.62;1.77;;;;;;;1.92;58.21;102035.38;4393817;32;34881;-86
2023/02/13 02:19:52;;;;;;;0.65;0.65;;;;;;;2.02;58.53;102031.28;4381060;32;33698;-86
2023/02/13 02:22:54;;;;;;;1.48;1.25;;;;;;;2.10;58.24;102023.69;4382216;32;32743;-86
2023/02/13 02:25:30;;;;;;;1.23;1.12;;;;;;;2.05;58.24;102044.41;4396107;32;33443;-86
2023/02/13 02:28:21;;;;;;;0.90;0.90;;;;;;;2.01;58.08;102040.84;4397630;32;33426;-86
2023/02/13 02:31:26;;;;;;;1.25;0.40;;;;;;;1.92;58.55;102035.38;4382560;32;32430;-86
2023/02/13 02:34:16;;;;;;;0.43;0.43;;;;;;;1.85;58.58;102035.16;4397253;32;33156;-86
2023/02/13 02:36:59;;;;;;;0.88;0.88;;;;;;;1.76;59.12;102041.88;4394630;32;34989;-86
2023/02/13 02:39:43;;;;;;;10.10;1.65;;;;;;;1.80;58.95;102040.22;4394412;32;34796;-87
2023/02/13 02:42:41;;;;;;;0.15;0.10;;;;;;;1.68;59.32;102040.78;4383007;32;34091;-87
2023/02/13 02:45:18;;;;;;;1.60;1.50;;;;;;;1.71;58.95;102040.88;4388069;32;33364;-87
2023/02/13 02:50:52;;;;;;;2.30;1.40;;;;;;;1.79;58.79;102034.13;4383832;32;32422;-85
2023/02/13 02:53:51;;;;;;;1.92;1.85;;;;;;;1.65;59.32;102043.28;4394123;32;32237;-86
2023/02/13 02:56:25;;;;;;;0.77;0.77;;;;;;;1.82;58.57;102042.91;4394810;32;32355;-86
2023/02/13 03:07:24;;;;;;;0.73;0.73;;;;;;;1.74;58.13;102035.72;4389409;32;32071;-84
2023/02/13 03:24:18;;;;;;;0.28;0.28;;;;;;;1.37;59.24;102032.91;4380842;32;33419;-86
2023/02/13 03:27:04;;;;;;;2.92;2.72;;;;;;;1.22;59.71;102029.00;4396415;32;32716;-86
2023/02/13 03:32:30;;;;;;;0.00;0.00;;;;;;;1.47;58.71;102033.25;4395243;32;33176;-86
2023/02/13 03:38:47;;;;;;;2.30;2.17;;;;;;;1.51;58.77;102040.28;4384091;32;34149;-87
2023/02/13 03:41:24;;;;;;;0.77;0.77;;;;;;;1.47;58.67;102034.94;4394826;32;33677;-87
2023/02/13 03:44:13;;;;;;;0.52;0.52;;;;;;;1.36;59.04;102036.34;4364740;32;33266;-87
2023/02/13 03:46:44;;;;;;;0.25;0.25;;;;;;;1.37;58.67;102033.78;4370144;32;33018;-86
2023/02/13 03:52:42;;;;;;;0.90;0.90;;;;;;;1.45;58.03;102021.88;4378431;32;33118;-86
2023/02/13 04:01:18;;;;;;;2.08;1.37;;;;;;;1.48;57.99;102021.13;4379754;32;32596;-83
2023/02/13 04:04:04;;;;;;;0.77;0.75;;;;;;;1.25;58.96;102023.91;4377567;32;35937;-83
2023/02/13 04:06:37;;;;;;;0.30;0.30;;;;;;;1.32;58.78;102021.47;4382679;32;32795;-82
2023/02/13 04:09:05;;;;;;;0.62;0.62;;;;;;;1.14;58.98;102025.31;4368785;32;34423;-85
2023/02/13 04:11:56;;;;;;;0.65;0.62;;;;;;;1.22;59.27;102033.34;4382012;32;32764;-85
2023/02/13 04:14:27;;;;;;;2.17;0.67;;;;;;;1.34;58.92;102033.72;4384144;32;32353;-85
2023/02/13 04:17:01;;;;;;;0.52;0.52;;;;;;;1.27;58.59;102034.34;4369104;32;34454;-86
2023/02/13 04:19:31;;;;;;;1.65;1.55;;;;;;;1.32;58.38;102039.69;4380608;32;33369;-86
2023/02/13 04:22:00;;;;;;;0.68;0.68;;;;;;;1.28;58.60;102036.13;4376530;32;33837;-87
2023/02/13 04:24:28;;;;;;;0.52;0.52;;;;;;;1.34;58.21;102027.63;4383204;32;32276;-87
2023/02/13 04:26:56;;;;;;;2.95;2.75;;;;;;;0.91;59.30;102034.13;4376897;32;32353;-87
2023/02/13 04:29:25;;;;;;;0.15;0.15;;;;;;;1.10;58.73;102033.87;4373311;32;33810;-87
2023/02/13 04:31:53;;;;;;;1.15;0.88;;;;;;;1.16;58.57;102035.78;4382668;32;33588;-87
2023/02/13 04:34:20;;;;;;;1.10;0.88;;;;;;;1.19;58.42;102028.94;4375917;32;32821;-87
2023/02/13 04:36:48;;;;;;;0.45;0.45;;;;;;;1.23;58.26;102029.91;4379580;32;32577;-87
2023/02/13 04:39:16;;;;;;;1.40;1.30;;;;;;;1.15;58.10;102027.09;4396054;32;34336;-87
2023/02/13 04:41:44;;;;;;;8.15;2.95;;;;;;;1.23;57.86;102024.69;4383445;32;34247;-87
2023/02/13 04:44:12;;;;;;;0.50;0.50;;;;;;;1.07;58.11;102018.16;4384351;32;34207;-87
2023/02/13 04:46:40;;;;;;;0.75;0.75;;;;;;;0.97;58.52;102024.78;4377467;32;32778;-87
2023/02/13 04:49:09;;;;;;;1.40;1.30;;;;;;;1.17;58.20;102025.41;4382427;32;33971;-86
2023/02/13 04:51:37;;;;;;;0.30;0.30;;;;;;;0.90;58.95;102019.34;4377419;32;33522;-87
2023/02/13 04:54:05;;;;;;;2.62;1.33;;;;;;;0.95;59.29;102025.56;4382071;32;32692;-85
2023/02/13 04:56:32;;;;;;;0.37;0.37;;;;;;;1.06;59.05;102015.50;4371631;32;32262;-85
2023/02/13 04:59:00;;;;;;;0.05;0.05;;;;;;;1.07;58.78;102014.66;4394508;32;33521;-85
2023/02/13 05:01:28;;;;;;;0.25;0.25;;;;;;;1.10;58.61;102017.38;4376690;32;33200;-84
2023/02/13 05:03:56;;;;;;;3.10;2.42;;;;;;;1.05;58.47;102009.44;4387533;32;32583;-84
2023/02/13 05:06:24;;;;;;;0.55;0.55;;;;;;;1.13;58.06;102007.03;4376029;32;33758;-85
2023/02/13 05:08:52;;;;;;;0.32;0.32;;;;;;;1.02;58.66;102009.31;4388764;32;34128;-84
2023/02/13 05:11:20;;;;;;;0.25;0.25;;;;;;;1.41;57.29;102013.94;4382728;32;33055;-85
2023/02/13 05:13:48;;;;;;;1.98;1.73;;;;;;;0.90;58.62;102014.13;4393739;32;33284;-85
2023/02/13 05:16:15;;;;;;;3.53;1.55;;;;;;;0.90;58.81;102014.13;4380957;32;34246;-85
2023/02/13 05:18:43;;;;;;;2.15;1.77;;;;;;;1.02;58.40;102004.13;4394526;32;34614;-84
2023/02/13 05:23:57;;;;;;;2.37;2.17;;;;;;;0.90;58.58;102008.94;4382943;32;32494;-85
2023/02/13 05:26:25;;;;;;;0.73;0.73;;;;;;;0.70;59.04;102004.00;4381861;32;32333;-84
2023/02/13 05:31:39;;;;;;;0.28;0.28;;;;;;;0.68;58.95;102012.59;4381973;32;33877;-84
2023/02/13 05:34:07;;;;;;;2.30;1.85;;;;;;;0.59;58.84;102010.59;4395856;32;32501;-84
2023/02/13 05:36:35;;;;;;;0.47;0.47;;;;;;;0.76;58.38;101999.00;4382074;32;32934;-84
2023/02/13 05:39:03;;;;;;;0.85;0.85;;;;;;;0.76;58.13;101999.00;4382474;32;32598;-85
2023/02/13 05:41:30;;;;;;;2.17;1.00;;;;;;;0.94;57.61;101997.78;4375382;32;33495;-85
2023/02/13 05:43:58;;;;;;;0.98;0.98;;;;;;;0.66;58.98;102004.72;4375420;32;32953;-84
2023/02/13 05:46:27;;;;;;;0.37;0.37;;;;;;;0.68;59.16;102004.78;4379078;32;33720;-86
2023/02/13 05:48:55;;;;;;;1.98;1.87;;;;;;;0.77;58.92;102005.09;4394225;32;34122;-86
2023/02/13 05:51:22;;;;;;;0.52;0.52;;;;;;;0.77;58.81;102008.56;4370747;32;32995;-87
2023/02/13 05:53:50;;;;;;;0.98;0.95;;;;;;;0.60;59.23;102004.53;4357689;32;33396;-87
2023/02/13 05:56:18;;;;;;;2.20;1.02;;;;;;;0.77;58.93;102012.91;4380824;32;32750;-87
2023/02/13 05:58:45;;;;;;;0.82;0.55;;;;;;;0.55;58.99;102021.72;4363847;32;32606;-84
2023/02/13 06:01:13;;;;;;;1.80;1.37;;;;;;;0.76;58.42;102012.00;4379253;32;32474;-84
2023/02/13 06:03:41;;;;;;;0.37;0.37;;;;;;;0.54;58.84;102019.94;4392241;32;33697;-85
2023/02/13 06:06:09;;;;;;;0.45;0.45;;;;;;;0.59;58.79;102022.69;4375170;32;34815;-84
2023/02/13 06:08:36;;;;;;;3.40;3.20;;;;;;;0.76;58.27;102016.34;4380701;32;34683;-84
2023/02/13 06:11:05;;;;;;;1.37;1.27;;;;;;;0.82;58.10;102024.31;4382807;32;34144;-85
2023/02/13 06:13:32;;;;;;;2.72;2.15;;;;;;;0.63;59.01;102027.16;4381709;32;34082;-85
2023/02/13 06:16:00;;;;;;;0.85;0.85;;;;;;;0.65;58.63;102028.09;4391319;32;33627;-85
2023/02/13 06:18:28;;;;;;;1.08;1.00;;;;;;;0.63;58.88;102034.97;4372231;32;32938;-85
2023/02/13 06:20:56;;;;;;;3.75;2.62;;;;;;;0.59;58.95;102038.31;4393507;32;34746;-85
2023/02/13 06:23:24;;;;;;;0.57;0.57;;;;;;;0.69;58.96;102041.25;4383113;32;33477;-85
2023/02/13 06:25:52;;;;;;;3.08;1.90;;;;;;;0.74;58.87;102044.88;4391240;32;34651;-85
2023/02/13 06:28:19;;;;;;;2.80;2.58;;;;;;;0.59;58.83;102049.56;4383752;32;33281;-83
2023/02/13 06:30:48;;;;;;;2.28;1.08;;;;;;;0.76;58.46;102047.53;4381797;32;33906;-83
2023/02/13 06:33:16;;;;;;;0.52;0.43;;;;;;;0.65;58.59;102044.56;4381120;32;34000;-83
2023/02/13 06:35:43;;;;;;;0.10;0.10;;;;;;;0.63;58.66;102041.06;4393610;32;33882;-84
2023/02/13 06:38:11;;;;;;;0.47;0.47;;;;;;;0.86;58.45;102051.31;4381904;32;33405;-83
2023/02/13 06:40:39;;;;;;;1.12;1.12;;;;;;;0.75;59.33;102062.22;4359382;32;33024;-83
2023/02/13 06:43:07;;;;;;;2.17;2.00;;;;;;;0.81;59.53;102066.78;4382413;32;33795;-83
2023/02/13 06:45:36;;;;;;;1.00;1.00;;;;;;;0.85;59.82;102062.53;4379518;32;35401;-84
2023/02/13 06:48:04;;;;;;;0.22;0.22;;;;;;;0.83;60.12;102059.88;4369209;32;33213;-83
2023/02/13 06:50:33;;;;;;;3.92;3.70;;;;;;;0.99;59.83;102056.03;4381820;32;35699;-84
2023/02/13 06:53:02;;;;;;;1.67;1.58;;;;;;;0.98;59.70;102049.09;4392068;32;33110;-84
2023/02/13 06:55:29;;;;;;;1.12;1.12;;;;;;;1.18;59.39;102047.09;4379188;32;34543;-84
2023/02/13 06:57:57;;;;;;;1.85;1.35;;;;;;;1.15;59.56;102045.28;4382885;32;33669;-84
2023/02/13 07:00:25;;;;;;;1.08;1.08;;;;;;;1.18;59.60;102047.97;4383196;32;34025;-84
2023/02/13 07:02:53;;;;;;;1.40;1.40;;;;;;;1.56;58.92;102053.44;4384708;32;34025;-84
2023/02/13 07:05:21;;;;;;;2.65;1.65;;;;;;;1.52;59.53;102059.41;4383248;32;33147;-84
2023/02/13 07:07:49;;;;;;;3.03;2.75;;;;;;;1.61;59.90;102051.84;4383900;32;33277;-84
2023/02/13 07:10:17;;;;;;;3.53;3.33;;;;;;;1.64;59.96;102044.13;4382072;32;34260;-84
2023/02/13 07:12:44;;;;;;;0.45;0.45;;;;;;;1.68;60.10;102048.59;4382867;32;31423;-83
2023/02/13 07:15:31;;;;;;;3.30;2.12;;;;;;;1.81;59.96;102047.22;4386001;32;33060;-90
2023/02/13 07:17:59;;;;;;;2.17;2.08;;;;;;;1.64;60.96;102051.94;4373712;32;33580;-90
2023/02/13 07:21:01;;;;;;;1.77;1.75;;;;;;;1.76;60.97;102052.31;4360603;32;33585;-87
2023/02/13 07:23:32;;;;;;;1.37;1.33;;;;;;;1.89;60.66;102050.03;4355213;32;32395;-87
2023/02/13 07:26:03;;;;;;;0.98;0.98;;;;;;;2.14;60.38;102049.00;4383636;32;31803;-86
2023/02/13 07:28:31;;;;;;;0.70;0.70;;;;;;;2.48;59.80;102054.22;4384801;32;33823;-86
2023/02/13 07:31:04;;;;;;;4.95;1.98;;;;;;;2.63;59.89;102058.06;4384608;32;33993;-86
2023/02/13 07:33:33;;;;;;;1.87;1.75;;;;;;;2.68;60.07;102051.25;4384046;32;33336;-86
2023/02/13 07:36:04;;;;;;;5.60;4.53;;;;;;;2.79;60.12;102050.63;4373431;32;32890;-86
2023/02/13 07:38:32;;;;;;;0.65;0.65;;;;;;;2.92;60.24;102061.38;4371746;32;31909;-86
2023/02/13 07:41:00;;;;;;;1.98;1.87;;;;;;;3.06;59.90;102050.41;4386333;32;33437;-85
2023/02/13 07:43:29;;;;;;;1.62;1.52;;;;;;;2.92;60.11;102054.44;4382140;32;33507;-86
2023/02/13 07:46:01;;;;;;;2.40;0.62;;;;;;;3.10;60.10;102050.50;4384495;32;33085;-86
2023/02/13 07:48:30;;;;;;;1.42;1.33;;;;;;;3.20;59.79;102055.94;4384506;32;34011;-85
2023/02/13 07:51:02;;;;;;;2.58;1.87;;;;;;;3.28;59.66;102057.00;4372590;32;33770;-86
2023/02/13 07:53:31;;;;;;;2.60;2.40;;;;;;;3.33;59.91;102052.78;4394642;32;33608;-86
2023/02/13 07:55:58;;;;;;;1.73;1.65;;;;;;;3.46;59.58;102055.62;4379859;32;34460;-85
2023/02/13 07:58:26;;;;;;;1.77;1.67;;;;;;;3.42;59.75;102053.78;4378447;32;34567;-85
2023/02/13 08:00:54;;;;;;;3.65;1.42;;;;;;;3.61;59.49;102055.97;4361432;32;34352;-85
2023/02/13 08:03:22;;;;;;;2.70;2.50;;;;;;;3.85;59.04;102059.09;4381721;32;34376;-85
2023/02/13 08:05:49;;;;;;;1.40;1.30;;;;;;;3.91;58.68;102057.44;4381830;32;33204;-85
2023/02/13 08:08:17;;;;;;;3.78;2.50;;;;;;;4.01;58.47;102059.38;4376896;32;33026;-85
2023/02/13 08:13:31;;;;;;;1.87;1.80;;;;;;;4.46;57.51;102061.06;4384861;32;31837;-85
2023/02/13 08:16:00;;;;;;;0.20;0.20;;;;;;;4.71;56.71;102050.16;4382855;32;35125;-88
2023/02/13 08:18:30;;;;;;;0.20;0.20;;;;;;;4.51;56.54;102051.56;4374113;32;33865;-88
2023/02/13 08:20:57;;;;;;;0.65;0.65;;;;;;;4.51;55.72;102054.16;4382496;32;34532;-84
2023/02/13 08:23:25;;;;;;;1.62;1.52;;;;;;;4.74;55.41;102039.72;4395755;32;33721;-84
2023/02/13 08:25:53;;;;;;;0.90;0.90;;;;;;;4.80;55.27;102045.09;4369624;32;33147;-85
2023/02/13 08:28:22;;;;;;;1.42;1.23;;;;;;;4.90;54.88;102038.25;4383781;32;34122;-85
2023/02/13 08:30:50;;;;;;;0.70;0.70;;;;;;;5.00;54.23;102039.28;4380793;32;33152;-86
2023/02/13 08:33:17;;;;;;;2.60;1.87;;;;;;;5.44;53.33;102036.38;4381241;32;32595;-85
2023/02/13 08:35:45;;;;;;;0.77;0.77;;;;;;;5.64;52.52;102038.38;4381527;32;34562;-85
2023/02/13 08:38:13;;;;;;;0.52;0.52;;;;;;;5.28;52.89;102037.94;4395939;32;30974;-86
2023/02/13 08:40:41;;;;;;;1.48;1.33;;;;;;;5.25;53.32;102024.78;4372156;32;33576;-84
2023/02/13 08:43:09;;;;;;;2.35;1.10;;;;;;;5.21;53.38;102023.84;4380908;32;32931;-84
2023/02/13 08:45:37;;;;;;;0.65;0.65;;;;;;;5.59;52.09;102028.72;4394389;32;33793;-85
2023/02/13 08:48:06;;;;;;;2.58;2.37;;;;;;;5.75;52.20;102027.19;4394923;32;32763;-84
2023/02/13 08:50:33;;;;;;;1.02;1.02;;;;;;;6.11;51.68;102027.59;4393909;32;34536;-84
2023/02/13 08:53:04;;;;;;;3.67;3.40;;;;;;;6.05;50.99;102024.03;4384819;32;33134;-84
2023/02/13 08:55:32;;;;;;;0.70;0.70;;;;;;;6.63;49.35;102027.19;4373209;32;34006;-85
2023/02/13 08:58:02;;;;;;;1.75;1.55;;;;;;;6.41;50.38;102026.16;4375813;32;34654;-84
2023/02/13 09:00:31;;;;;;;2.25;2.12;;;;;;;6.83;49.75;102029.97;4374600;32;30616;-84
2023/02/13 09:03:02;;;;;;;2.00;1.77;;;;;;;6.70;49.80;102030.75;4380588;32;31626;-85
2023/02/13 09:05:31;;;;;;;0.25;0.25;;;;;;;6.98;49.80;102026.56;4385807;32;32879;-83
2023/02/13 09:08:01;;;;;;;13.15;2.30;;;;;;;7.12;48.37;102027.53;4368380;32;33289;-84
2023/02/13 09:10:33;;;;;;;0.65;0.65;;;;;;;7.26;47.50;102028.47;4386111;32;34476;-84
2023/02/13 09:13:02;;;;;;;;;;;;;;;7.14;48.47;102020.56;4397180;32;32259;-84
2023/02/13 09:15:31;;;;;;;0.47;0.47;;;;;;;7.14;48.72;102031.94;4373522;32;33624;-84
2023/02/13 09:17:58;;;;;;;3.78;2.60;;;;;;;7.18;48.63;102027.59;4380567;32;33455;-84
2023/02/13 09:20:26;;;;;;;0.45;0.45;;;;;;;7.22;48.48;102033.75;4380817;32;33487;-84
2023/02/13 09:22:55;;;;;;;0.88;0.88;;;;;;;7.54;48.14;102032.12;4369837;32;32141;-84
2023/02/13 09:25:23;;;;;;;4.70;2.33;;;;;;;7.52;48.19;102027.75;4373720;32;32983;-84
2023/02/13 09:27:51;;;;;;;2.30;1.98;;;;;;;7.59;47.91;102029.53;4380081;32;33754;-84
2023/02/13 09:30:24;;;;;;;1.80;1.55;;;;;;;7.82;47.27;102033.13;4371895;32;34112;-84
2023/02/13 09:32:53;;;;;;;1.85;1.70;;;;;;;7.74;48.90;102029.59;4383733;32;32404;-84
2023/02/13 09:35:22;;;;;;;0.98;0.98;;;;;;;7.81;49.76;102031.38;4372872;32;32443;-84
2023/02/13 09:37:49;;;;;;;1.95;1.85;;;;;;;8.30;46.73;102020.94;4383587;32;34366;-84
2023/02/13 09:40:23;;;;;;;2.75;2.55;;;;;;;8.22;47.58;102020.06;4386419;32;33810;-84
2023/02/13 09:42:51;;;;;;;1.33;0.85;;;;;;;8.77;45.17;102014.84;4394574;32;33697;-84
2023/02/13 09:45:22;;;;;;;1.75;1.65;;;;;;;8.95;44.88;102000.78;4395583;32;32895;-84
2023/02/13 09:47:50;;;;;;;1.50;1.40;;;;;;;8.91;45.30;102009.56;4382551;32;33024;-84
2023/02/13 09:50:21;;;;;;;2.30;2.15;;;;;;;8.68;45.46;102013.09;4381332;32;34161;-84
2023/02/13 09:52:51;;;;;;;3.60;2.13;;;;;;;8.95;45.47;102011.31;4381727;32;33989;-84
2023/02/13 09:55:22;;;;;;;1.12;1.08;;;;;;;9.41;44.64;102006.78;4382968;32;31991;-84
2023/02/13 09:58:18;;;;;;;2.30;1.42;;;;;;;8.90;44.74;102008.69;4393686;32;34372;-84
2023/02/13 10:00:48;;;;;;;1.92;1.80;;;;;;;9.31;44.28;102002.44;4385946;32;32726;-84
2023/02/13 10:03:47;;;;;;;1.33;1.25;;;;;;;9.44;43.79;102006.75;4393996;32;33216;-84
2023/02/13 10:06:36;;;;;;;1.15;1.15;;;;;;;9.76;43.31;101995.19;4392752;32;34006;-88
2023/02/13 10:09:11;;;;;;;1.95;0.57;;;;;;;9.83;42.75;101991.66;4385136;32;33335;-86
2023/02/13 10:12:04;;;;;;;1.20;1.17;;;;;;;9.76;43.21;101987.28;4386019;32;33990;-86
2023/02/13 10:14:45;;;;;;;0.75;0.75;;;;;;;9.65;43.31;101994.41;4382050;32;34030;-86
2023/02/13 10:17:32;;;;;;;3.30;2.58;;;;;;;9.96;42.67;101992.44;4394471;32;33022;-86
2023/02/13 10:20:29;;;;;;;7.62;2.58;;;;;;;9.78;43.78;101985.53;4393105;32;34077;-87
2023/02/13 10:23:32;;;;;;;1.05;1.05;;;;;;;10.25;42.21;101981.72;4393284;32;33991;-85
2023/02/13 10:26:03;;;;;;;4.20;2.80;;;;;;;9.92;43.22;101978.41;4371786;32;34180;-86
2023/02/13 10:28:41;;;;;;;3.95;2.65;;;;;;;10.41;42.39;101972.81;4381529;32;37582;-83
2023/02/13 10:31:13;;;;;;;2.10;1.90;;;;;;;10.68;42.32;101981.34;4392917;32;34091;-83
2023/02/13 10:33:51;;;;;;;;;;;;;;;10.60;43.03;101977.94;4382377;32;33463;-83
2023/02/13 10:36:18;;;;;;;3.20;2.05;;;;;;;11.07;42.01;101974.81;4398580;32;32846;-82
2023/02/13 10:38:59;;;;;;;2.03;1.92;;;;;;;11.60;39.73;101961.81;4389192;32;34612;-83
2023/02/13 10:41:51;;;;;;;1.92;1.30;;;;;;;10.63;40.97;101959.37;4374911;32;34444;-83
2023/02/13 10:44:33;;;;;;;3.33;1.67;;;;;;;11.21;40.73;101956.13;4372697;32;33968;-83
2023/02/13 10:47:01;;;;;;;5.72;1.85;;;;;;;11.08;41.75;101963.34;4388992;32;32324;-83
2023/02/13 10:49:38;;;;;;;6.43;2.92;;;;;;;11.19;41.99;101955.25;4399688;32;33566;-84
2023/02/13 10:52:31;;;;;;;2.30;2.10;;;;;;;11.50;41.87;101948.72;4398317;32;33255;-83
2023/02/13 10:55:05;;;;;;;1.00;0.95;;;;;;;11.11;41.40;101949.19;4384110;32;33376;-83
2023/02/13 10:57:39;;;;;;;3.83;1.10;;;;;;;11.44;41.35;101943.50;4379058;32;31845;-83
2023/02/13 11:00:20;;;;;;;0.45;0.45;;;;;;;11.86;41.02;101941.16;4376334;32;32876;-83
2023/02/13 11:02:48;;;;;;;1.95;1.83;;;;;;;11.41;41.31;101932.94;4397493;32;33807;-83
2023/02/13 11:05:18;;;;;;;1.77;1.23;;;;;;;11.94;41.95;101923.41;4375021;32;34652;-84
2023/02/13 11:07:46;;;;;;;3.08;1.50;;;;;;;11.67;42.34;101921.13;4385121;32;34016;-83
2023/02/13 11:10:20;;;;;;;7.40;3.53;;;;;;;12.08;41.25;101914.38;4400047;32;34551;-84
2023/02/13 11:12:49;;;;;;;0.77;0.75;;;;;;;12.29;40.74;101906.06;4378044;32;33608;-83
2023/02/13 11:15:26;;;;;;;1.17;0.62;;;;;;;12.73;40.54;101896.44;4381286;32;33599;-84
2023/02/13 11:17:55;;;;;;;0.68;0.68;;;;;;;12.71;39.40;101890.28;4385658;32;34309;-84
2023/02/13 11:20:33;;;;;;;3.35;1.70;;;;;;;12.57;40.72;101894.06;4375083;32;35419;-84
2023/02/13 11:23:19;;;;;;;0.22;0.22;;;;;;;13.19;38.41;101890.19;4371401;32;33163;-83
2023/02/13 11:25:59;;;;;;;0.90;0.90;;;;;;;12.98;38.82;101883.56;4386962;32;34195;-83
2023/02/13 11:28:29;;;;;;;0.80;0.65;;;;;;;13.01;38.68;101887.03;4397947;32;32566;-83
2023/02/13 11:31:20;;;;;;;1.23;1.15;;;;;;;13.14;39.46;101884.97;4376348;32;34612;-83
2023/02/13 11:33:48;;;;;;;2.92;1.83;;;;;;;13.19;38.23;101882.22;4395298;32;34725;-84
2023/02/13 11:36:29;;;;;;;0.37;0.37;;;;;;;12.76;39.97;101889.28;4389135;32;31930;-84
2023/02/13 11:39:06;;;;;;;0.20;0.20;;;;;;;13.17;37.87;101879.62;4396476;32;33803;-83
2023/02/13 11:41:41;;;;;;;0.10;0.10;;;;;;;13.17;38.03;101878.75;4396961;32;32822;-83
2023/02/13 11:44:27;;;;;;;0.40;0.30;;;;;;;12.94;38.55;101876.56;4387154;32;33412;-83
2023/02/13 11:46:59;;;;;;;0.00;0.00;;;;;;;12.63;39.01;101881.59;4397057;32;34399;-84
2023/02/13 11:49:33;;;;;;;;;;;;;;;12.76;38.54;101872.50;4380847;32;32697;-84
2023/02/13 11:52:04;;;;;;;1.35;1.12;;;;;;;12.86;38.48;101865.25;4381856;32;33345;-83
2023/02/13 11:54:38;;;;;;;0.22;0.22;;;;;;;12.62;38.80;101863.94;4388047;32;35343;-83
2023/02/13 11:57:14;;;;;;;0.43;0.43;;;;;;;12.27;40.03;101865.47;4375089;32;32995;-84
2023/02/13 11:59:43;;;;;;;0.52;0.52;;;;;;;12.21;39.96;101865.59;4395753;32;34351;-83
2023/02/13 12:02:16;;;;;;;0.52;0.52;;;;;;;12.43;39.33;101872.25;4375246;32;33231;-83
2023/02/13 12:04:44;;;;;;;2.72;0.47;;;;;;;12.36;39.76;101862.66;4391885;32;33710;-83
2023/02/13 12:07:32;;;;;;;0.82;0.82;;;;;;;12.54;39.26;101864.97;4382446;32;34672;-84
2023/02/13 12:10:10;;;;;;;1.58;1.48;;;;;;;11.77;41.32;101869.81;4382165;32;30903;-84
2023/02/13 12:12:46;;;;;;;0.88;0.88;;;;;;;12.41;39.49;101866.09;4385978;32;33452;-83
2023/02/13 12:15:19;;;;;;;2.00;1.55;;;;;;;12.23;40.90;101862.00;4381337;32;31058;-83
2023/02/13 12:18:12;;;;;;;2.20;1.10;;;;;;;12.51;39.26;101867.69;4369637;32;33601;-84
2023/02/13 12:21:09;;;;;;;4.50;1.55;;;;;;;12.46;39.67;101858.94;4366297;32;33413;-83
2023/02/13 12:23:46;;;;;;;2.97;1.20;;;;;;;12.67;39.45;101862.94;4359560;32;33165;-83
2023/02/13 12:26:35;;;;;;;0.20;0.20;;;;;;;12.74;39.13;101848.69;4393297;32;32926;-84
2023/02/13 12:29:22;;;;;;;0.98;0.70;;;;;;;12.55;39.13;101845.53;4388105;32;33590;-84
2023/02/13 12:31:56;;;;;;;0.75;0.70;;;;;;;11.91;41.35;101854.59;4386668;32;33729;-84
2023/02/13 12:34:59;;;;;;;0.90;0.90;;;;;;;11.96;41.97;101846.59;4384877;32;32723;-83
2023/02/13 12:37:58;;;;;;;0.60;0.60;;;;;;;12.14;41.41;101840.13;4373924;32;33231;-84
2023/02/13 12:40:38;;;;;;;0.20;0.20;;;;;;;12.85;39.77;101829.91;4382186;32;33844;-84
2023/02/13 12:43:17;;;;;;;1.37;1.27;;;;;;;13.25;38.57;101826.44;4394996;32;32994;-84
2023/02/13 12:46:10;;;;;;;2.30;2.12;;;;;;;12.95;39.20;101822.63;4395290;32;34324;-84
2023/02/13 12:49:08;;;;;;;1.77;1.20;;;;;;;13.18;39.27;101814.16;4381727;32;33856;-84